This is the latest recevied weather packets stored in our database for station/object WX2NJ-13. If no packets are shown the sender has not sent any weather packets the latest 10 day(s).
| Time | Temp. | Humidity | Pressure | Rain* | Wind** | Luminosity | Snow |
|---|---|---|---|---|---|---|---|
| 1777300987 | 17.22° C | 45% | 1025.3 hPa | 0 mm | 0 m/s | - | - |
| 1777300688 | 17.22° C | 50% | 1025.3 hPa | 0 mm | 1.34 m/s, 316° | - | - |
| 1777300390 | 17.22° C | 52% | 1025.3 hPa | 0 mm | 2.24 m/s, 134° | - | - |
| 1777300088 | 17.22° C | 54% | 1025.3 hPa | 0 mm | 1.34 m/s, 307° | - | - |
| 1777299790 | 16.67° C | 57% | 1025.3 hPa | 0 mm | 0.89 m/s, 323° | - | - |
| 1777299491 | 16.67° C | 58% | 1025.2 hPa | 0 mm | 0.45 m/s, 352° | - | - |
| 1777299190 | 16.11° C | 61% | 1025.2 hPa | 0 mm | 0 m/s | - | - |
| 1777298891 | 16.11° C | 66% | 1025.2 hPa | 0 mm | 0 m/s | - | - |
| 1777298593 | 15.56° C | 67% | 1025.2 hPa | 0 mm | 0.45 m/s, 10° | - | - |
| 1777298291 | 15° C | 73% | 1025.2 hPa | 0 mm | 0 m/s | - | - |
| 1777297992 | 15° C | 77% | 1025.1 hPa | 0 mm | 0 m/s | - | - |
| 1777297694 | 14.44° C | 80% | 1025 hPa | 0 mm | 0 m/s | - | - |
| 1777297392 | 13.89° C | 84% | 1025 hPa | 0 mm | 1.79 m/s, 273° | - | - |
| 1777297094 | 13.33° C | 89% | 1025 hPa | 0 mm | 0.45 m/s, 86° | - | - |
| 1777296795 | 12.22° C | 91% | 1025 hPa | 0 mm | 0 m/s | - | - |
| 1777296493 | 12.22° C | 93% | 1024.9 hPa | 0 mm | 0 m/s | - | - |
| 1777296195 | 11.67° C | 95% | 1024.8 hPa | 0 mm | 0 m/s | - | - |
| 1777295896 | 11.11° C | 95% | 1024.7 hPa | 0 mm | 0 m/s | - | - |
| 1777295595 | 10.56° C | 96% | 1024.7 hPa | 0 mm | 0 m/s | - | - |
| 1777295296 | 10° C | 96% | 1024.6 hPa | 0 mm | 0 m/s | - | - |
| 1777294997 | 10° C | 96% | 1024.6 hPa | 0 mm | 0 m/s | - | - |
| 1777294696 | 9.44° C | 96% | 1024.6 hPa | 0 mm | 0 m/s | - | - |
| 1777294397 | 8.89° C | 96% | 1024.6 hPa | 0 mm | 0 m/s | - | - |
| 1777294098 | 8.89° C | 96% | 1024.6 hPa | 0 mm | 0.45 m/s, 343° | - | - |
| 1777293797 | 8.33° C | 97% | 1024.5 hPa | 0 mm | 0 m/s | - | - |
* Rain latest hour (hover to see other rain measurements)
** Current wind speed in m/s (hover to see current wind gust speed)